sensor_id;sensor_type;location;lat;lon;timestamp;P1;durP1;ratioP1;P2;durP2;ratioP2
57627;SDS011;43451;49.060;10.616;2022-07-31T00:00:19;7.85;;;6.20;;
57627;SDS011;43451;49.060;10.616;2022-07-31T00:02:44;7.20;;;6.20;;
57627;SDS011;43451;49.060;10.616;2022-07-31T00:05:10;6.55;;;5.82;;
57627;SDS011;43451;49.060;10.616;2022-07-31T00:07:36;8.25;;;6.13;;
57627;SDS011;43451;49.060;10.616;2022-07-31T00:10:02;7.63;;;6.70;;
57627;SDS011;43451;49.060;10.616;2022-07-31T00:12:28;7.28;;;6.53;;
57627;SDS011;43451;49.060;10.616;2022-07-31T00:14:53;8.88;;;6.25;;
57627;SDS011;43451;49.060;10.616;2022-07-31T00:17:19;6.60;;;5.95;;
57627;SDS011;43451;49.060;10.616;2022-07-31T00:19:44;8.75;;;6.75;;
57627;SDS011;43451;49.060;10.616;2022-07-31T00:22:10;8.43;;;7.55;;
57627;SDS011;43451;49.060;10.616;2022-07-31T00:24:37;8.02;;;7.20;;
57627;SDS011;43451;49.060;10.616;2022-07-31T00:27:03;9.90;;;7.90;;
57627;SDS011;43451;49.060;10.616;2022-07-31T00:29:28;8.52;;;7.57;;
57627;SDS011;43451;49.060;10.616;2022-07-31T00:31:54;9.85;;;7.45;;
57627;SDS011;43451;49.060;10.616;2022-07-31T00:34:21;8.02;;;6.68;;
57627;SDS011;43451;49.060;10.616;2022-07-31T00:36:46;7.88;;;6.65;;
57627;SDS011;43451;49.060;10.616;2022-07-31T00:39:12;7.18;;;6.28;;
57627;SDS011;43451;49.060;10.616;2022-07-31T00:41:41;10.13;;;7.28;;
57627;SDS011;43451;49.060;10.616;2022-07-31T00:44:08;7.38;;;6.68;;
57627;SDS011;43451;49.060;10.616;2022-07-31T00:46:36;7.60;;;6.80;;
57627;SDS011;43451;49.060;10.616;2022-07-31T00:49:02;7.72;;;6.40;;
57627;SDS011;43451;49.060;10.616;2022-07-31T00:51:28;7.78;;;6.70;;
57627;SDS011;43451;49.060;10.616;2022-07-31T00:53:53;9.73;;;6.85;;
57627;SDS011;43451;49.060;10.616;2022-07-31T00:56:19;13.13;;;7.03;;
57627;SDS011;43451;49.060;10.616;2022-07-31T00:58:44;9.65;;;7.05;;
57627;SDS011;43451;49.060;10.616;2022-07-31T01:01:10;7.75;;;6.95;;
57627;SDS011;43451;49.060;10.616;2022-07-31T01:03:35;7.90;;;6.68;;
57627;SDS011;43451;49.060;10.616;2022-07-31T01:06:01;9.90;;;7.15;;
57627;SDS011;43451;49.060;10.616;2022-07-31T01:08:27;8.30;;;7.38;;
57627;SDS011;43451;49.060;10.616;2022-07-31T01:13:55;7.47;;;6.75;;
57627;SDS011;43451;49.060;10.616;2022-07-31T01:16:25;8.25;;;6.57;;
57627;SDS011;43451;49.060;10.616;2022-07-31T01:18:55;8.00;;;6.90;;
57627;SDS011;43451;49.060;10.616;2022-07-31T01:21:26;7.50;;;6.65;;
57627;SDS011;43451;49.060;10.616;2022-07-31T01:27:01;7.72;;;6.57;;
57627;SDS011;43451;49.060;10.616;2022-07-31T01:29:46;9.27;;;6.10;;
57627;SDS011;43451;49.060;10.616;2022-07-31T01:32:27;6.93;;;6.18;;
57627;SDS011;43451;49.060;10.616;2022-07-31T01:35:15;8.95;;;6.35;;
57627;SDS011;43451;49.060;10.616;2022-07-31T01:37:46;6.95;;;6.25;;
57627;SDS011;43451;49.060;10.616;2022-07-31T01:40:19;9.52;;;6.68;;
57627;SDS011;43451;49.060;10.616;2022-07-31T01:42:52;8.60;;;6.60;;
57627;SDS011;43451;49.060;10.616;2022-07-31T01:45:21;7.70;;;6.75;;
57627;SDS011;43451;49.060;10.616;2022-07-31T01:47:48;9.05;;;6.25;;
57627;SDS011;43451;49.060;10.616;2022-07-31T01:50:14;8.23;;;6.82;;
57627;SDS011;43451;49.060;10.616;2022-07-31T01:52:42;7.35;;;6.32;;
57627;SDS011;43451;49.060;10.616;2022-07-31T01:55:09;7.70;;;7.00;;
57627;SDS011;43451;49.060;10.616;2022-07-31T01:57:37;7.57;;;6.28;;
57627;SDS011;43451;49.060;10.616;2022-07-31T02:00:07;6.78;;;6.10;;
57627;SDS011;43451;49.060;10.616;2022-07-31T02:02:34;9.15;;;6.78;;
57627;SDS011;43451;49.060;10.616;2022-07-31T02:07:32;7.43;;;6.47;;
57627;SDS011;43451;49.060;10.616;2022-07-31T02:10:00;8.60;;;6.68;;
57627;SDS011;43451;49.060;10.616;2022-07-31T02:12:27;7.05;;;6.22;;
57627;SDS011;43451;49.060;10.616;2022-07-31T02:14:54;8.40;;;6.80;;
57627;SDS011;43451;49.060;10.616;2022-07-31T02:17:20;7.40;;;6.30;;
57627;SDS011;43451;49.060;10.616;2022-07-31T02:19:48;7.15;;;6.28;;
57627;SDS011;43451;49.060;10.616;2022-07-31T02:22:16;8.23;;;6.50;;
57627;SDS011;43451;49.060;10.616;2022-07-31T02:24:42;8.38;;;6.28;;
57627;SDS011;43451;49.060;10.616;2022-07-31T02:27:08;8.13;;;6.70;;
57627;SDS011;43451;49.060;10.616;2022-07-31T02:32:01;7.72;;;6.43;;
57627;SDS011;43451;49.060;10.616;2022-07-31T02:34:29;9.48;;;6.30;;
57627;SDS011;43451;49.060;10.616;2022-07-31T02:36:56;9.18;;;6.70;;
57627;SDS011;43451;49.060;10.616;2022-07-31T02:39:23;7.43;;;6.72;;
57627;SDS011;43451;49.060;10.616;2022-07-31T02:41:51;8.15;;;6.70;;
57627;SDS011;43451;49.060;10.616;2022-07-31T02:44:17;8.25;;;6.63;;
57627;SDS011;43451;49.060;10.616;2022-07-31T02:46:43;7.45;;;6.75;;
57627;SDS011;43451;49.060;10.616;2022-07-31T02:49:10;8.00;;;6.70;;
57627;SDS011;43451;49.060;10.616;2022-07-31T02:51:38;7.90;;;7.00;;
57627;SDS011;43451;49.060;10.616;2022-07-31T02:54:04;6.65;;;6.05;;
57627;SDS011;43451;49.060;10.616;2022-07-31T02:56:29;7.97;;;5.38;;
57627;SDS011;43451;49.060;10.616;2022-07-31T02:58:57;7.50;;;6.80;;
57627;SDS011;43451;49.060;10.616;2022-07-31T03:01:22;8.02;;;6.88;;
57627;SDS011;43451;49.060;10.616;2022-07-31T03:03:47;6.97;;;6.28;;
57627;SDS011;43451;49.060;10.616;2022-07-31T03:06:14;7.72;;;6.72;;
57627;SDS011;43451;49.060;10.616;2022-07-31T03:08:40;7.53;;;6.60;;
57627;SDS011;43451;49.060;10.616;2022-07-31T03:11:06;7.43;;;6.72;;
57627;SDS011;43451;49.060;10.616;2022-07-31T03:13:32;7.15;;;6.32;;
57627;SDS011;43451;49.060;10.616;2022-07-31T03:16:00;7.90;;;7.20;;
57627;SDS011;43451;49.060;10.616;2022-07-31T03:18:26;7.95;;;7.15;;
57627;SDS011;43451;49.060;10.616;2022-07-31T03:20:53;7.63;;;6.82;;
57627;SDS011;43451;49.060;10.616;2022-07-31T03:23:21;9.90;;;7.53;;
57627;SDS011;43451;49.060;10.616;2022-07-31T03:25:52;8.63;;;7.03;;
57627;SDS011;43451;49.060;10.616;2022-07-31T03:28:18;8.27;;;7.13;;
57627;SDS011;43451;49.060;10.616;2022-07-31T03:30:45;8.45;;;7.00;;
57627;SDS011;43451;49.060;10.616;2022-07-31T03:33:18;7.47;;;6.70;;
57627;SDS011;43451;49.060;10.616;2022-07-31T03:35:43;8.05;;;7.03;;
57627;SDS011;43451;49.060;10.616;2022-07-31T03:38:09;9.10;;;7.45;;
57627;SDS011;43451;49.060;10.616;2022-07-31T03:40:34;8.27;;;7.20;;
57627;SDS011;43451;49.060;10.616;2022-07-31T03:43:00;7.97;;;7.18;;
57627;SDS011;43451;49.060;10.616;2022-07-31T03:45:27;7.82;;;7.00;;
57627;SDS011;43451;49.060;10.616;2022-07-31T03:47:54;8.07;;;7.20;;
57627;SDS011;43451;49.060;10.616;2022-07-31T03:50:20;7.82;;;7.13;;
57627;SDS011;43451;49.060;10.616;2022-07-31T03:52:47;7.82;;;7.03;;
57627;SDS011;43451;49.060;10.616;2022-07-31T03:55:14;8.52;;;6.75;;
57627;SDS011;43451;49.060;10.616;2022-07-31T03:57:39;7.40;;;6.70;;
57627;SDS011;43451;49.060;10.616;2022-07-31T04:00:07;8.35;;;6.75;;
57627;SDS011;43451;49.060;10.616;2022-07-31T04:02:34;8.60;;;7.10;;
57627;SDS011;43451;49.060;10.616;2022-07-31T04:04:59;8.98;;;6.93;;
57627;SDS011;43451;49.060;10.616;2022-07-31T04:07:25;7.60;;;6.90;;
57627;SDS011;43451;49.060;10.616;2022-07-31T04:09:51;9.43;;;7.28;;
57627;SDS011;43451;49.060;10.616;2022-07-31T04:12:16;9.05;;;6.50;;
57627;SDS011;43451;49.060;10.616;2022-07-31T04:14:42;8.75;;;6.75;;
57627;SDS011;43451;49.060;10.616;2022-07-31T04:17:08;8.48;;;6.95;;
57627;SDS011;43451;49.060;10.616;2022-07-31T04:19:33;7.40;;;6.53;;
57627;SDS011;43451;49.060;10.616;2022-07-31T04:21:59;8.75;;;6.97;;
57627;SDS011;43451;49.060;10.616;2022-07-31T04:24:25;9.60;;;6.97;;
57627;SDS011;43451;49.060;10.616;2022-07-31T04:26:51;7.53;;;6.63;;
57627;SDS011;43451;49.060;10.616;2022-07-31T04:31:44;8.10;;;7.00;;
57627;SDS011;43451;49.060;10.616;2022-07-31T04:34:09;7.80;;;7.03;;
57627;SDS011;43451;49.060;10.616;2022-07-31T04:36:35;9.77;;;7.57;;
57627;SDS011;43451;49.060;10.616;2022-07-31T04:39:00;9.75;;;7.40;;
57627;SDS011;43451;49.060;10.616;2022-07-31T04:41:26;7.40;;;6.68;;
57627;SDS011;43451;49.060;10.616;2022-07-31T04:43:52;8.23;;;7.03;;
57627;SDS011;43451;49.060;10.616;2022-07-31T04:46:17;7.75;;;6.88;;
57627;SDS011;43451;49.060;10.616;2022-07-31T04:48:43;8.43;;;7.38;;
57627;SDS011;43451;49.060;10.616;2022-07-31T04:51:14;9.88;;;7.10;;
57627;SDS011;43451;49.060;10.616;2022-07-31T04:53:44;8.05;;;7.20;;
57627;SDS011;43451;49.060;10.616;2022-07-31T04:56:10;11.10;;;7.47;;
57627;SDS011;43451;49.060;10.616;2022-07-31T04:58:54;10.25;;;7.75;;
57627;SDS011;43451;49.060;10.616;2022-07-31T05:01:20;9.55;;;7.40;;
57627;SDS011;43451;49.060;10.616;2022-07-31T05:03:45;8.88;;;7.97;;
57627;SDS011;43451;49.060;10.616;2022-07-31T05:06:11;9.80;;;8.27;;
57627;SDS011;43451;49.060;10.616;2022-07-31T05:08:37;9.05;;;7.97;;
57627;SDS011;43451;49.060;10.616;2022-07-31T05:11:04;9.85;;;7.85;;
57627;SDS011;43451;49.060;10.616;2022-07-31T05:13:48;9.32;;;7.65;;
57627;SDS011;43451;49.060;10.616;2022-07-31T05:16:15;8.98;;;7.78;;
57627;SDS011;43451;49.060;10.616;2022-07-31T05:18:41;9.52;;;7.97;;
57627;SDS011;43451;49.060;10.616;2022-07-31T05:21:07;8.90;;;7.53;;
57627;SDS011;43451;49.060;10.616;2022-07-31T05:23:32;8.85;;;7.95;;
57627;SDS011;43451;49.060;10.616;2022-07-31T05:25:58;15.05;;;7.82;;
57627;SDS011;43451;49.060;10.616;2022-07-31T05:28:23;11.05;;;7.88;;
57627;SDS011;43451;49.060;10.616;2022-07-31T05:30:49;9.10;;;7.53;;
57627;SDS011;43451;49.060;10.616;2022-07-31T05:33:14;9.25;;;8.15;;
57627;SDS011;43451;49.060;10.616;2022-07-31T05:35:39;10.70;;;7.82;;
57627;SDS011;43451;49.060;10.616;2022-07-31T05:38:05;10.18;;;8.10;;
57627;SDS011;43451;49.060;10.616;2022-07-31T05:40:30;9.60;;;7.93;;
57627;SDS011;43451;49.060;10.616;2022-07-31T05:42:56;9.77;;;8.32;;
57627;SDS011;43451;49.060;10.616;2022-07-31T05:45:21;8.52;;;7.60;;
57627;SDS011;43451;49.060;10.616;2022-07-31T05:47:47;11.10;;;8.73;;
57627;SDS011;43451;49.060;10.616;2022-07-31T05:50:12;12.18;;;8.70;;
57627;SDS011;43451;49.060;10.616;2022-07-31T05:52:38;10.32;;;8.20;;
57627;SDS011;43451;49.060;10.616;2022-07-31T05:55:04;10.80;;;8.55;;
57627;SDS011;43451;49.060;10.616;2022-07-31T05:57:30;11.25;;;8.75;;
57627;SDS011;43451;49.060;10.616;2022-07-31T05:59:55;13.63;;;8.93;;
57627;SDS011;43451;49.060;10.616;2022-07-31T06:02:20;15.63;;;9.07;;
57627;SDS011;43451;49.060;10.616;2022-07-31T06:04:46;11.25;;;8.50;;
57627;SDS011;43451;49.060;10.616;2022-07-31T06:07:11;12.65;;;8.95;;
57627;SDS011;43451;49.060;10.616;2022-07-31T06:09:37;10.20;;;9.20;;
57627;SDS011;43451;49.060;10.616;2022-07-31T06:12:02;9.82;;;8.82;;
57627;SDS011;43451;49.060;10.616;2022-07-31T06:14:28;10.88;;;9.20;;
57627;SDS011;43451;49.060;10.616;2022-07-31T06:16:53;12.00;;;10.70;;
57627;SDS011;43451;49.060;10.616;2022-07-31T06:19:19;13.80;;;10.98;;
57627;SDS011;43451;49.060;10.616;2022-07-31T06:21:45;10.85;;;9.18;;
57627;SDS011;43451;49.060;10.616;2022-07-31T06:24:10;10.20;;;9.10;;
57627;SDS011;43451;49.060;10.616;2022-07-31T06:26:36;10.10;;;9.07;;
57627;SDS011;43451;49.060;10.616;2022-07-31T06:29:02;11.00;;;8.85;;
57627;SDS011;43451;49.060;10.616;2022-07-31T06:31:28;12.68;;;8.82;;
57627;SDS011;43451;49.060;10.616;2022-07-31T06:33:53;10.45;;;9.20;;
57627;SDS011;43451;49.060;10.616;2022-07-31T06:36:18;11.25;;;8.88;;
57627;SDS011;43451;49.060;10.616;2022-07-31T06:38:44;10.57;;;8.50;;
57627;SDS011;43451;49.060;10.616;2022-07-31T06:41:10;13.63;;;8.80;;
57627;SDS011;43451;49.060;10.616;2022-07-31T06:43:35;9.77;;;8.77;;
57627;SDS011;43451;49.060;10.616;2022-07-31T06:46:01;10.07;;;8.32;;
57627;SDS011;43451;49.060;10.616;2022-07-31T06:48:26;8.60;;;7.80;;
57627;SDS011;43451;49.060;10.616;2022-07-31T06:50:52;9.50;;;7.57;;
57627;SDS011;43451;49.060;10.616;2022-07-31T06:53:17;10.55;;;7.22;;
57627;SDS011;43451;49.060;10.616;2022-07-31T06:55:43;8.68;;;7.78;;
57627;SDS011;43451;49.060;10.616;2022-07-31T06:58:08;8.73;;;7.93;;
57627;SDS011;43451;49.060;10.616;2022-07-31T07:00:33;8.88;;;7.97;;
57627;SDS011;43451;49.060;10.616;2022-07-31T07:02:59;8.70;;;7.78;;
57627;SDS011;43451;49.060;10.616;2022-07-31T07:05:24;10.05;;;7.70;;
57627;SDS011;43451;49.060;10.616;2022-07-31T07:07:50;8.07;;;7.28;;
57627;SDS011;43451;49.060;10.616;2022-07-31T07:10:15;7.93;;;7.00;;
57627;SDS011;43451;49.060;10.616;2022-07-31T07:12:41;8.32;;;6.35;;
57627;SDS011;43451;49.060;10.616;2022-07-31T07:15:06;11.38;;;6.57;;
57627;SDS011;43451;49.060;10.616;2022-07-31T07:17:32;8.10;;;6.55;;
57627;SDS011;43451;49.060;10.616;2022-07-31T07:19:57;7.80;;;6.28;;
57627;SDS011;43451;49.060;10.616;2022-07-31T07:22:23;8.50;;;6.22;;
57627;SDS011;43451;49.060;10.616;2022-07-31T07:24:48;9.90;;;6.28;;
57627;SDS011;43451;49.060;10.616;2022-07-31T07:27:15;6.83;;;5.77;;
57627;SDS011;43451;49.060;10.616;2022-07-31T07:29:40;6.28;;;5.45;;
57627;SDS011;43451;49.060;10.616;2022-07-31T07:32:06;12.75;;;5.60;;
57627;SDS011;43451;49.060;10.616;2022-07-31T07:34:32;9.15;;;5.25;;
57627;SDS011;43451;49.060;10.616;2022-07-31T07:36:57;6.60;;;4.70;;
57627;SDS011;43451;49.060;10.616;2022-07-31T07:39:22;11.13;;;5.32;;
57627;SDS011;43451;49.060;10.616;2022-07-31T07:41:48;6.32;;;5.20;;
57627;SDS011;43451;49.060;10.616;2022-07-31T07:44:13;5.93;;;4.50;;
57627;SDS011;43451;49.060;10.616;2022-07-31T07:46:39;5.60;;;5.00;;
57627;SDS011;43451;49.060;10.616;2022-07-31T07:49:04;10.32;;;4.80;;
57627;SDS011;43451;49.060;10.616;2022-07-31T07:51:30;4.35;;;3.95;;
57627;SDS011;43451;49.060;10.616;2022-07-31T07:53:56;5.07;;;4.38;;
57627;SDS011;43451;49.060;10.616;2022-07-31T07:56:21;6.18;;;3.90;;
57627;SDS011;43451;49.060;10.616;2022-07-31T07:58:47;7.65;;;3.53;;
57627;SDS011;43451;49.060;10.616;2022-07-31T08:01:13;5.38;;;3.60;;
57627;SDS011;43451;49.060;10.616;2022-07-31T08:03:38;11.93;;;4.38;;
57627;SDS011;43451;49.060;10.616;2022-07-31T08:06:04;4.93;;;3.22;;
57627;SDS011;43451;49.060;10.616;2022-07-31T08:08:29;6.75;;;4.25;;
57627;SDS011;43451;49.060;10.616;2022-07-31T08:10:55;3.75;;;2.95;;
57627;SDS011;43451;49.060;10.616;2022-07-31T08:13:21;5.45;;;3.03;;
57627;SDS011;43451;49.060;10.616;2022-07-31T08:15:46;3.17;;;2.40;;
57627;SDS011;43451;49.060;10.616;2022-07-31T08:18:12;4.05;;;2.50;;
57627;SDS011;43451;49.060;10.616;2022-07-31T08:20:37;4.35;;;2.60;;
57627;SDS011;43451;49.060;10.616;2022-07-31T08:23:05;3.22;;;2.60;;
57627;SDS011;43451;49.060;10.616;2022-07-31T08:25:31;5.68;;;1.85;;
57627;SDS011;43451;49.060;10.616;2022-07-31T08:27:56;2.25;;;2.05;;
57627;SDS011;43451;49.060;10.616;2022-07-31T08:30:21;2.67;;;1.80;;
57627;SDS011;43451;49.060;10.616;2022-07-31T08:32:47;3.20;;;2.03;;
57627;SDS011;43451;49.060;10.616;2022-07-31T08:35:12;3.17;;;2.00;;
57627;SDS011;43451;49.060;10.616;2022-07-31T08:37:41;9.82;;;4.20;;
57627;SDS011;43451;49.060;10.616;2022-07-31T08:40:07;3.58;;;1.77;;
57627;SDS011;43451;49.060;10.616;2022-07-31T08:42:32;6.90;;;3.95;;
57627;SDS011;43451;49.060;10.616;2022-07-31T08:45:00;3.47;;;1.92;;
57627;SDS011;43451;49.060;10.616;2022-07-31T08:47:26;3.92;;;1.70;;
57627;SDS011;43451;49.060;10.616;2022-07-31T08:49:55;2.55;;;1.80;;
57627;SDS011;43451;49.060;10.616;2022-07-31T08:52:23;4.80;;;2.00;;
57627;SDS011;43451;49.060;10.616;2022-07-31T08:54:50;4.78;;;2.17;;
57627;SDS011;43451;49.060;10.616;2022-07-31T08:57:16;2.67;;;1.75;;
57627;SDS011;43451;49.060;10.616;2022-07-31T08:59:42;4.22;;;1.65;;
57627;SDS011;43451;49.060;10.616;2022-07-31T09:02:11;3.72;;;2.00;;
57627;SDS011;43451;49.060;10.616;2022-07-31T09:04:39;3.50;;;2.45;;
57627;SDS011;43451;49.060;10.616;2022-07-31T09:07:08;4.53;;;1.80;;
57627;SDS011;43451;49.060;10.616;2022-07-31T09:09:34;2.80;;;1.80;;
57627;SDS011;43451;49.060;10.616;2022-07-31T09:12:00;3.83;;;1.80;;
57627;SDS011;43451;49.060;10.616;2022-07-31T09:14:30;4.53;;;2.17;;
57627;SDS011;43451;49.060;10.616;2022-07-31T09:16:59;3.83;;;1.75;;
57627;SDS011;43451;49.060;10.616;2022-07-31T09:19:35;3.38;;;1.70;;
57627;SDS011;43451;49.060;10.616;2022-07-31T09:22:02;3.13;;;2.03;;
57627;SDS011;43451;49.060;10.616;2022-07-31T09:24:32;3.03;;;2.30;;
57627;SDS011;43451;49.060;10.616;2022-07-31T09:27:03;1.80;;;1.58;;
57627;SDS011;43451;49.060;10.616;2022-07-31T09:29:37;3.75;;;1.88;;
57627;SDS011;43451;49.060;10.616;2022-07-31T09:34:42;3.95;;;1.60;;
57627;SDS011;43451;49.060;10.616;2022-07-31T09:37:18;5.25;;;2.28;;
57627;SDS011;43451;49.060;10.616;2022-07-31T09:39:49;4.32;;;1.70;;
57627;SDS011;43451;49.060;10.616;2022-07-31T09:42:15;6.25;;;1.80;;
57627;SDS011;43451;49.060;10.616;2022-07-31T09:44:41;2.70;;;1.65;;
57627;SDS011;43451;49.060;10.616;2022-07-31T09:47:20;2.67;;;1.63;;
57627;SDS011;43451;49.060;10.616;2022-07-31T09:49:50;10.30;;;2.72;;
57627;SDS011;43451;49.060;10.616;2022-07-31T09:52:18;20.60;;;2.83;;
57627;SDS011;43451;49.060;10.616;2022-07-31T09:54:44;6.13;;;1.88;;
57627;SDS011;43451;49.060;10.616;2022-07-31T09:57:13;2.35;;;1.60;;
57627;SDS011;43451;49.060;10.616;2022-07-31T09:59:39;4.47;;;1.85;;
57627;SDS011;43451;49.060;10.616;2022-07-31T10:02:05;3.33;;;1.83;;
57627;SDS011;43451;49.060;10.616;2022-07-31T10:04:34;5.63;;;2.03;;
57627;SDS011;43451;49.060;10.616;2022-07-31T10:07:02;7.38;;;2.10;;
57627;SDS011;43451;49.060;10.616;2022-07-31T10:09:29;32.67;;;3.25;;
57627;SDS011;43451;49.060;10.616;2022-07-31T10:11:56;3.80;;;1.90;;
57627;SDS011;43451;49.060;10.616;2022-07-31T10:14:26;4.78;;;1.83;;
57627;SDS011;43451;49.060;10.616;2022-07-31T10:16:55;4.05;;;1.85;;
57627;SDS011;43451;49.060;10.616;2022-07-31T10:19:24;2.38;;;1.60;;
57627;SDS011;43451;49.060;10.616;2022-07-31T10:21:56;4.45;;;1.90;;
57627;SDS011;43451;49.060;10.616;2022-07-31T10:24:25;3.58;;;1.83;;
57627;SDS011;43451;49.060;10.616;2022-07-31T10:26:56;2.58;;;1.60;;
57627;SDS011;43451;49.060;10.616;2022-07-31T10:29:22;5.78;;;2.30;;
57627;SDS011;43451;49.060;10.616;2022-07-31T10:31:48;4.30;;;2.78;;
57627;SDS011;43451;49.060;10.616;2022-07-31T10:34:14;4.32;;;2.05;;
57627;SDS011;43451;49.060;10.616;2022-07-31T10:36:42;5.38;;;1.90;;
57627;SDS011;43451;49.060;10.616;2022-07-31T10:39:24;6.28;;;1.90;;
57627;SDS011;43451;49.060;10.616;2022-07-31T10:42:11;3.00;;;1.67;;
57627;SDS011;43451;49.060;10.616;2022-07-31T10:44:43;4.88;;;1.83;;
57627;SDS011;43451;49.060;10.616;2022-07-31T10:47:13;4.85;;;1.90;;
57627;SDS011;43451;49.060;10.616;2022-07-31T10:49:43;4.50;;;1.90;;
57627;SDS011;43451;49.060;10.616;2022-07-31T10:52:10;10.35;;;1.90;;
57627;SDS011;43451;49.060;10.616;2022-07-31T10:54:40;4.90;;;1.70;;
57627;SDS011;43451;49.060;10.616;2022-07-31T10:57:07;7.60;;;1.55;;
57627;SDS011;43451;49.060;10.616;2022-07-31T10:59:32;4.72;;;2.05;;
57627;SDS011;43451;49.060;10.616;2022-07-31T11:01:58;2.85;;;1.60;;
57627;SDS011;43451;49.060;10.616;2022-07-31T11:04:27;4.65;;;1.73;;
57627;SDS011;43451;49.060;10.616;2022-07-31T11:06:56;2.70;;;1.52;;
57627;SDS011;43451;49.060;10.616;2022-07-31T11:09:23;4.50;;;1.70;;
57627;SDS011;43451;49.060;10.616;2022-07-31T11:11:51;18.27;;;5.25;;
57627;SDS011;43451;49.060;10.616;2022-07-31T11:14:16;18.90;;;8.73;;
57627;SDS011;43451;49.060;10.616;2022-07-31T11:16:51;3.92;;;1.95;;
57627;SDS011;43451;49.060;10.616;2022-07-31T11:19:18;2.50;;;1.30;;
57627;SDS011;43451;49.060;10.616;2022-07-31T11:21:43;3.30;;;1.27;;
57627;SDS011;43451;49.060;10.616;2022-07-31T11:26:41;2.33;;;1.30;;
57627;SDS011;43451;49.060;10.616;2022-07-31T11:29:12;2.28;;;1.52;;
57627;SDS011;43451;49.060;10.616;2022-07-31T11:31:38;2.47;;;1.40;;
57627;SDS011;43451;49.060;10.616;2022-07-31T11:34:03;2.50;;;1.17;;
57627;SDS011;43451;49.060;10.616;2022-07-31T11:36:28;7.40;;;1.83;;
57627;SDS011;43451;49.060;10.616;2022-07-31T11:38:54;7.40;;;2.75;;
57627;SDS011;43451;49.060;10.616;2022-07-31T11:41:20;4.60;;;2.20;;
57627;SDS011;43451;49.060;10.616;2022-07-31T11:43:52;7.63;;;2.00;;
57627;SDS011;43451;49.060;10.616;2022-07-31T11:46:28;3.13;;;1.60;;
57627;SDS011;43451;49.060;10.616;2022-07-31T11:48:56;1.70;;;1.30;;
57627;SDS011;43451;49.060;10.616;2022-07-31T11:51:22;3.40;;;1.55;;
57627;SDS011;43451;49.060;10.616;2022-07-31T11:53:48;2.70;;;1.67;;
57627;SDS011;43451;49.060;10.616;2022-07-31T11:56:15;2.70;;;1.30;;
57627;SDS011;43451;49.060;10.616;2022-07-31T11:58:45;4.13;;;1.55;;
57627;SDS011;43451;49.060;10.616;2022-07-31T12:01:23;9.05;;;2.72;;
57627;SDS011;43451;49.060;10.616;2022-07-31T12:03:53;2.33;;;1.45;;
57627;SDS011;43451;49.060;10.616;2022-07-31T12:06:20;5.43;;;1.58;;
57627;SDS011;43451;49.060;10.616;2022-07-31T12:08:46;1.67;;;1.40;;
57627;SDS011;43451;49.060;10.616;2022-07-31T12:11:13;3.35;;;1.60;;
57627;SDS011;43451;49.060;10.616;2022-07-31T12:13:43;2.22;;;1.35;;
57627;SDS011;43451;49.060;10.616;2022-07-31T12:16:11;1.95;;;1.60;;
57627;SDS011;43451;49.060;10.616;2022-07-31T12:18:56;3.28;;;1.45;;
57627;SDS011;43451;49.060;10.616;2022-07-31T12:21:28;2.00;;;1.30;;
57627;SDS011;43451;49.060;10.616;2022-07-31T12:23:58;5.95;;;1.50;;
57627;SDS011;43451;49.060;10.616;2022-07-31T12:26:28;3.45;;;1.38;;
57627;SDS011;43451;49.060;10.616;2022-07-31T12:31:25;3.00;;;1.40;;
57627;SDS011;43451;49.060;10.616;2022-07-31T12:36:18;9.10;;;1.93;;
57627;SDS011;43451;49.060;10.616;2022-07-31T12:38:44;3.67;;;1.77;;
57627;SDS011;43451;49.060;10.616;2022-07-31T12:41:09;4.25;;;1.15;;
57627;SDS011;43451;49.060;10.616;2022-07-31T12:43:35;11.65;;;1.77;;
57627;SDS011;43451;49.060;10.616;2022-07-31T12:46:01;7.18;;;1.83;;
57627;SDS011;43451;49.060;10.616;2022-07-31T12:48:30;11.15;;;1.50;;
57627;SDS011;43451;49.060;10.616;2022-07-31T12:53:22;3.87;;;1.60;;
57627;SDS011;43451;49.060;10.616;2022-07-31T12:55:47;5.75;;;1.60;;
57627;SDS011;43451;49.060;10.616;2022-07-31T12:58:13;2.22;;;1.40;;
57627;SDS011;43451;49.060;10.616;2022-07-31T13:00:38;4.10;;;1.38;;
57627;SDS011;43451;49.060;10.616;2022-07-31T13:03:04;1.90;;;1.40;;
57627;SDS011;43451;49.060;10.616;2022-07-31T13:05:29;2.08;;;1.20;;
57627;SDS011;43451;49.060;10.616;2022-07-31T13:07:55;8.32;;;1.80;;
57627;SDS011;43451;49.060;10.616;2022-07-31T13:10:21;3.08;;;1.48;;
57627;SDS011;43451;49.060;10.616;2022-07-31T13:12:46;1.55;;;1.30;;
57627;SDS011;43451;49.060;10.616;2022-07-31T13:15:18;4.18;;;1.70;;
57627;SDS011;43451;49.060;10.616;2022-07-31T13:17:47;8.20;;;2.13;;
57627;SDS011;43451;49.060;10.616;2022-07-31T13:20:12;2.22;;;1.40;;
57627;SDS011;43451;49.060;10.616;2022-07-31T13:22:38;9.27;;;1.70;;
57627;SDS011;43451;49.060;10.616;2022-07-31T13:25:04;7.88;;;1.90;;
57627;SDS011;43451;49.060;10.616;2022-07-31T13:27:30;6.60;;;1.60;;
57627;SDS011;43451;49.060;10.616;2022-07-31T13:29:55;2.08;;;1.23;;
57627;SDS011;43451;49.060;10.616;2022-07-31T13:32:22;5.57;;;1.58;;
57627;SDS011;43451;49.060;10.616;2022-07-31T13:34:48;4.75;;;1.50;;
57627;SDS011;43451;49.060;10.616;2022-07-31T13:37:14;6.45;;;1.67;;
57627;SDS011;43451;49.060;10.616;2022-07-31T13:39:39;11.68;;;1.67;;
57627;SDS011;43451;49.060;10.616;2022-07-31T13:42:04;4.68;;;1.67;;
57627;SDS011;43451;49.060;10.616;2022-07-31T13:44:30;3.97;;;1.95;;
57627;SDS011;43451;49.060;10.616;2022-07-31T13:46:57;1.67;;;1.35;;
57627;SDS011;43451;49.060;10.616;2022-07-31T13:49:22;7.70;;;1.55;;
57627;SDS011;43451;49.060;10.616;2022-07-31T13:51:53;5.38;;;1.55;;
57627;SDS011;43451;49.060;10.616;2022-07-31T13:54:19;14.25;;;1.83;;
57627;SDS011;43451;49.060;10.616;2022-07-31T13:56:44;13.20;;;2.00;;
57627;SDS011;43451;49.060;10.616;2022-07-31T13:59:10;1.45;;;1.20;;
57627;SDS011;43451;49.060;10.616;2022-07-31T14:01:36;4.07;;;1.60;;
57627;SDS011;43451;49.060;10.616;2022-07-31T14:04:02;18.63;;;1.80;;
57627;SDS011;43451;49.060;10.616;2022-07-31T14:06:27;5.40;;;1.50;;
57627;SDS011;43451;49.060;10.616;2022-07-31T14:08:52;3.20;;;1.50;;
57627;SDS011;43451;49.060;10.616;2022-07-31T14:11:18;12.07;;;2.28;;
57627;SDS011;43451;49.060;10.616;2022-07-31T14:13:43;3.83;;;1.30;;
57627;SDS011;43451;49.060;10.616;2022-07-31T14:16:09;9.13;;;1.88;;
57627;SDS011;43451;49.060;10.616;2022-07-31T14:18:34;11.70;;;1.95;;
57627;SDS011;43451;49.060;10.616;2022-07-31T14:20:59;3.25;;;1.50;;
57627;SDS011;43451;49.060;10.616;2022-07-31T14:23:25;8.95;;;1.70;;
57627;SDS011;43451;49.060;10.616;2022-07-31T14:25:51;2.90;;;1.30;;
57627;SDS011;43451;49.060;10.616;2022-07-31T14:28:16;2.50;;;1.25;;
57627;SDS011;43451;49.060;10.616;2022-07-31T14:30:42;4.18;;;1.75;;
57627;SDS011;43451;49.060;10.616;2022-07-31T14:33:10;1.67;;;1.52;;
57627;SDS011;43451;49.060;10.616;2022-07-31T14:35:36;13.82;;;2.28;;
57627;SDS011;43451;49.060;10.616;2022-07-31T14:38:03;2.90;;;1.30;;
57627;SDS011;43451;49.060;10.616;2022-07-31T14:40:28;2.13;;;1.42;;
57627;SDS011;43451;49.060;10.616;2022-07-31T14:42:55;3.53;;;1.38;;
57627;SDS011;43451;49.060;10.616;2022-07-31T14:45:28;2.10;;;1.40;;
57627;SDS011;43451;49.060;10.616;2022-07-31T14:47:53;2.40;;;1.42;;
57627;SDS011;43451;49.060;10.616;2022-07-31T14:50:19;2.63;;;1.30;;
57627;SDS011;43451;49.060;10.616;2022-07-31T14:52:45;2.38;;;1.45;;
57627;SDS011;43451;49.060;10.616;2022-07-31T14:55:11;2.90;;;1.58;;
57627;SDS011;43451;49.060;10.616;2022-07-31T14:57:37;1.90;;;1.40;;